Time;durP1;ratioP1;P1;durP2;ratioP2;P2;SDS_P1;SDS_P2;PMS_P1;PMS_P2;Temp;Humidity;BMP_temperature;BMP_pressure;BME280_temperature;BME280_humidity;BME280_pressure;Samples;Min_cycle;Max_cycle;Signal;HPM_P1;HPM_P2
2021/06/03 00:00:12;;;;;;;7.32;3.50;;;22.50;64.30;;;;;;5074040;28;20085;-88
2021/06/03 00:02:38;;;;;;;5.18;2.67;;;22.50;64.20;;;;;;5072747;28;20103;-88
2021/06/03 00:05:08;;;;;;;5.88;2.88;;;22.40;64.40;;;;;;5038687;28;20112;-89
2021/06/03 00:07:34;;;;;;;6.68;3.10;;;22.40;64.80;;;;;;5078416;28;20027;-89
2021/06/03 00:09:59;;;;;;;3.88;2.88;;;22.40;65.20;;;;;;5055346;28;20017;-87
2021/06/03 00:12:25;;;;;;;3.88;2.78;;;22.30;65.30;;;;;;5067412;28;20079;-88
2021/06/03 00:14:51;;;;;;;4.68;2.72;;;22.30;65.30;;;;;;5057408;28;20029;-88
2021/06/03 00:17:17;;;;;;;3.95;2.67;;;22.30;65.90;;;;;;5055058;28;20693;-88
2021/06/03 00:19:42;;;;;;;5.35;3.13;;;22.20;65.80;;;;;;5057655;28;20078;-89
2021/06/03 00:22:08;;;;;;;4.85;3.28;;;22.20;65.80;;;;;;5041590;28;20032;-89
2021/06/03 00:24:37;;;;;;;6.25;3.00;;;22.20;66.40;;;;;;5074569;28;20052;-88
2021/06/03 00:27:03;;;;;;;6.18;2.92;;;22.10;66.90;;;;;;5072499;28;20020;-89
2021/06/03 00:29:28;;;;;;;5.57;3.10;;;22.10;67.00;;;;;;5062769;28;20024;-88
2021/06/03 00:31:54;;;;;;;5.05;3.17;;;22.10;67.00;;;;;;5075154;28;20048;-89
2021/06/03 00:34:20;;;;;;;5.03;2.72;;;22.00;67.20;;;;;;5082679;28;20029;-88
2021/06/03 00:36:45;;;;;;;5.80;2.90;;;22.00;67.70;;;;;;5055758;28;20029;-88
2021/06/03 00:39:11;;;;;;;6.28;2.67;;;22.00;66.80;;;;;;5054710;28;20028;-88
2021/06/03 00:41:37;;;;;;;3.83;2.65;;;21.90;66.40;;;;;;5067583;28;20028;-88
2021/06/03 00:44:04;;;;;;;6.72;3.55;;;21.90;66.10;;;;;;5057483;28;20511;-88
2021/06/03 00:46:30;;;;;;;8.98;3.47;;;21.80;67.40;;;;;;5074780;28;20028;-88
2021/06/03 00:48:55;;;;;;;5.55;3.00;;;21.70;67.20;;;;;;5071620;28;20035;-89
2021/06/03 00:51:21;;;;;;;4.35;2.95;;;21.60;66.70;;;;;;5043144;28;20112;-88
2021/06/03 00:53:47;;;;;;;6.32;2.97;;;21.60;67.00;;;;;;5069046;28;20461;-88
2021/06/03 00:56:13;;;;;;;4.57;3.20;;;21.50;67.10;;;;;;5068700;28;20028;-88
2021/06/03 00:58:39;;;;;;;5.75;2.72;;;21.50;67.40;;;;;;5050368;28;20063;-88
2021/06/03 01:01:05;;;;;;;4.82;3.10;;;21.40;67.90;;;;;;5040531;28;20067;-89
2021/06/03 01:03:32;;;;;;;3.92;2.92;;;21.40;67.00;;;;;;5057289;28;20036;-88
2021/06/03 01:06:05;;;;;;;5.20;3.13;;;21.30;66.70;;;;;;5054906;28;20024;-88
2021/06/03 01:08:47;;;;;;;7.25;3.83;;;21.20;67.20;;;;;;5054964;28;20044;-88
2021/06/03 01:11:17;;;;;;;3.65;2.88;;;21.20;67.30;;;;;;5072468;28;20017;-88
2021/06/03 01:14:16;;;;;;;5.65;2.83;;;21.20;67.90;;;;;;5075496;28;20495;-89
2021/06/03 01:16:43;;;;;;;5.05;3.00;;;21.10;68.70;;;;;;5062292;28;20051;-88
2021/06/03 01:19:23;;;;;;;5.07;3.00;;;21.00;68.60;;;;;;5073954;28;20026;-87
2021/06/03 01:21:56;;;;;;;4.75;3.10;;;21.00;69.40;;;;;;5073901;28;20017;-88
2021/06/03 01:24:32;;;;;;;4.68;3.03;;;21.00;69.30;;;;;;5059551;28;20099;-88
2021/06/03 01:27:08;;;;;;;4.35;2.80;;;21.00;69.30;;;;;;5061686;28;20020;-88
2021/06/03 01:29:42;;;;;;;3.22;2.60;;;21.00;70.10;;;;;;5076040;28;20025;-89
2021/06/03 01:32:08;;;;;;;4.22;2.80;;;21.00;70.00;;;;;;5056884;28;20031;-87
2021/06/03 01:34:35;;;;;;;5.10;3.08;;;21.00;70.00;;;;;;5073479;28;20024;-88
2021/06/03 01:37:01;;;;;;;5.20;2.90;;;21.00;69.70;;;;;;5073415;28;20111;-88
2021/06/03 01:39:28;;;;;;;4.38;3.20;;;20.90;69.90;;;;;;5073209;28;20025;-87
2021/06/03 01:41:55;;;;;;;3.80;2.38;;;20.90;69.90;;;;;;5073067;28;20029;-87
2021/06/03 01:44:22;;;;;;;2.72;2.22;;;20.90;69.10;;;;;;5056619;28;20032;-87
2021/06/03 01:46:48;;;;;;;3.22;2.25;;;20.90;69.00;;;;;;5073381;28;20028;-87
2021/06/03 01:49:14;;;;;;;3.85;2.22;;;20.80;68.60;;;;;;5056441;28;20021;-88
2021/06/03 01:51:40;;;;;;;2.45;2.03;;;20.80;68.50;;;;;;5073168;28;20074;-87
2021/06/03 01:54:06;;;;;;;2.33;1.90;;;20.70;68.50;;;;;;5067148;28;20032;-87
2021/06/03 01:56:35;;;;;;;2.63;1.98;;;20.60;68.70;;;;;;5048307;28;20044;-87
2021/06/03 01:59:01;;;;;;;2.75;1.85;;;20.60;68.80;;;;;;5073072;28;20032;-87
2021/06/03 02:01:27;;;;;;;2.58;1.80;;;20.60;68.80;;;;;;5073953;28;20051;-88
2021/06/03 02:03:52;;;;;;;3.45;1.90;;;20.60;69.10;;;;;;5070524;28;20032;-86
2021/06/03 02:06:18;;;;;;;3.38;2.08;;;20.60;69.80;;;;;;5060407;28;20025;-86
2021/06/03 02:08:44;;;;;;;4.20;1.88;;;20.60;70.00;;;;;;5055234;28;20024;-86
2021/06/03 02:11:12;;;;;;;3.33;1.92;;;20.60;70.50;;;;;;5059063;28;20052;-87
2021/06/03 02:13:48;;;;;;;3.25;1.92;;;20.70;70.70;;;;;;5073007;28;20515;-87
2021/06/03 02:16:20;;;;;;;3.25;2.13;;;20.70;71.40;;;;;;5071497;28;20043;-87
2021/06/03 02:19:00;;;;;;;3.83;2.40;;;20.70;71.60;;;;;;5052414;28;20132;-87
2021/06/03 02:21:28;;;;;;;3.60;1.98;;;20.70;71.40;;;;;;5069425;28;20488;-87
2021/06/03 02:23:56;;;;;;;3.53;2.30;;;20.70;71.40;;;;;;5049089;28;20067;-86
2021/06/03 02:26:25;;;;;;;4.60;2.10;;;20.70;71.70;;;;;;5071900;28;20029;-87
2021/06/03 02:28:52;;;;;;;2.58;2.15;;;20.70;71.70;;;;;;5060497;28;20027;-87
2021/06/03 02:31:18;;;;;;;3.10;2.28;;;20.70;72.00;;;;;;5066676;28;20527;-87
2021/06/03 02:33:44;;;;;;;8.50;2.28;;;20.70;72.30;;;;;;5052183;28;20033;-87
2021/06/03 02:36:10;;;;;;;4.05;2.10;;;20.70;72.50;;;;;;5060393;28;20023;-87
2021/06/03 02:38:39;;;;;;;3.85;2.33;;;20.70;72.70;;;;;;5053290;28;20104;-87
2021/06/03 02:41:06;;;;;;;3.97;2.50;;;20.70;73.00;;;;;;5072459;28;20041;-87
2021/06/03 02:43:34;;;;;;;4.63;2.63;;;20.70;73.30;;;;;;5052321;28;20588;-87
2021/06/03 02:46:00;;;;;;;4.35;2.70;;;20.70;73.40;;;;;;5041965;28;20028;-88
2021/06/03 02:48:27;;;;;;;4.57;2.50;;;20.70;73.30;;;;;;5070200;28;20020;-87
2021/06/03 02:50:54;;;;;;;3.60;2.30;;;20.70;73.50;;;;;;5058732;28;20372;-87
2021/06/03 02:53:20;;;;;;;3.30;2.20;;;20.60;73.20;;;;;;5070924;28;20028;-87
2021/06/03 02:55:49;;;;;;;7.68;2.67;;;20.60;73.50;;;;;;5070741;28;20016;-87
2021/06/03 02:58:15;;;;;;;3.05;2.25;;;20.60;73.60;;;;;;5071686;28;20033;-86
2021/06/03 03:00:41;;;;;;;3.08;2.50;;;20.60;73.80;;;;;;5071699;28;20017;-87
2021/06/03 03:03:11;;;;;;;3.72;2.45;;;20.50;74.30;;;;;;5054763;28;20423;-87
2021/06/03 03:05:38;;;;;;;3.75;2.53;;;20.60;74.50;;;;;;5071535;28;20020;-87
2021/06/03 03:08:04;;;;;;;3.75;2.47;;;20.60;74.70;;;;;;5071849;28;20024;-87
2021/06/03 03:10:33;;;;;;;4.03;2.53;;;20.50;74.80;;;;;;5069730;28;20419;-87
2021/06/03 03:12:59;;;;;;;4.32;2.83;;;20.50;75.10;;;;;;5059097;28;20072;-87
2021/06/03 03:15:26;;;;;;;4.47;2.95;;;20.50;75.30;;;;;;5057771;28;20425;-87
2021/06/03 03:17:52;;;;;;;4.63;2.80;;;20.50;75.60;;;;;;5072037;28;20032;-88
2021/06/03 03:20:20;;;;;;;3.40;2.80;;;20.50;75.70;;;;;;5079485;28;20036;-88
2021/06/03 03:22:47;;;;;;;4.45;2.83;;;20.50;75.80;;;;;;5054452;28;20012;-87
2021/06/03 03:25:15;;;;;;;3.63;2.60;;;20.40;75.80;;;;;;5063230;28;20029;-88
2021/06/03 03:27:43;;;;;;;4.88;2.88;;;20.40;76.00;;;;;;5070148;28;20579;-88
2021/06/03 03:30:10;;;;;;;4.05;2.70;;;20.40;76.30;;;;;;5063364;28;20052;-88
2021/06/03 03:32:36;;;;;;;4.50;2.90;;;20.40;76.40;;;;;;5065638;28;20027;-88
2021/06/03 03:35:03;;;;;;;4.07;2.75;;;20.40;76.70;;;;;;5054565;28;20491;-88
2021/06/03 03:37:29;;;;;;;4.22;3.13;;;20.30;76.60;;;;;;5062152;28;20045;-87
2021/06/03 03:39:56;;;;;;;3.90;2.55;;;20.40;77.10;;;;;;5081196;28;20515;-88
2021/06/03 03:42:22;;;;;;;5.57;3.00;;;20.30;77.20;;;;;;5037516;28;20017;-88
2021/06/03 03:44:54;;;;;;;4.07;2.50;;;20.30;77.20;;;;;;5040651;28;20445;-88
2021/06/03 03:47:19;;;;;;;4.18;3.10;;;20.30;77.50;;;;;;5054058;28;20083;-88
2021/06/03 03:49:46;;;;;;;4.10;3.00;;;20.30;77.60;;;;;;5062475;28;20431;-88
2021/06/03 03:52:11;;;;;;;4.05;3.10;;;20.20;77.60;;;;;;5070584;28;20075;-88
2021/06/03 03:54:37;;;;;;;4.30;2.85;;;20.20;77.70;;;;;;5070733;28;20060;-87
2021/06/03 03:57:04;;;;;;;4.90;3.00;;;20.20;78.10;;;;;;5070392;28;20480;-87
2021/06/03 03:59:29;;;;;;;4.47;2.90;;;20.20;78.20;;;;;;5070511;28;20028;-87
2021/06/03 04:01:55;;;;;;;4.05;3.10;;;20.20;78.50;;;;;;5071183;28;20512;-87
2021/06/03 04:04:22;;;;;;;5.00;3.03;;;20.10;78.40;;;;;;5070954;28;20396;-87
2021/06/03 04:06:48;;;;;;;4.07;3.03;;;20.10;78.80;;;;;;5071724;28;20052;-88
2021/06/03 04:09:14;;;;;;;3.25;2.67;;;20.10;78.80;;;;;;5071283;28;20135;-88
2021/06/03 04:11:40;;;;;;;4.28;2.92;;;20.10;78.90;;;;;;5062139;28;20029;-88
2021/06/03 04:14:06;;;;;;;4.55;2.97;;;20.10;79.00;;;;;;5052580;28;20739;-89
2021/06/03 04:16:32;;;;;;;4.20;3.17;;;20.10;79.30;;;;;;5057520;28;20387;-87
2021/06/03 04:18:58;;;;;;;5.05;3.38;;;20.10;79.40;;;;;;5079193;28;20528;-87
2021/06/03 04:21:24;;;;;;;5.03;3.17;;;20.00;79.50;;;;;;5067783;28;20035;-87
2021/06/03 04:23:49;;;;;;;4.93;3.30;;;20.00;79.70;;;;;;5071906;28;20142;-87
2021/06/03 04:26:16;;;;;;;6.18;3.63;;;20.00;79.90;;;;;;5070539;28;20064;-87
2021/06/03 04:28:42;;;;;;;5.47;3.00;;;20.00;80.10;;;;;;5071357;28;20097;-89
2021/06/03 04:31:09;;;;;;;5.40;3.10;;;20.00;80.20;;;;;;5052129;28;20123;-88
2021/06/03 04:33:34;;;;;;;4.35;3.42;;;20.00;80.50;;;;;;5058895;28;20024;-88
2021/06/03 04:36:01;;;;;;;4.40;3.05;;;20.00;80.50;;;;;;5058489;28;20017;-87
2021/06/03 04:38:27;;;;;;;4.90;3.35;;;20.00;80.80;;;;;;5071031;28;20021;-88
2021/06/03 04:40:52;;;;;;;3.95;2.97;;;20.00;80.90;;;;;;5070977;28;20388;-88
2021/06/03 04:43:18;;;;;;;4.88;3.50;;;20.00;81.10;;;;;;5057298;28;20020;-88
2021/06/03 04:45:44;;;;;;;5.97;3.10;;;20.00;81.30;;;;;;5070506;28;20446;-87
2021/06/03 04:48:10;;;;;;;4.60;3.00;;;20.00;81.50;;;;;;5071688;28;20038;-88
2021/06/03 04:50:39;;;;;;;4.25;3.53;;;20.00;81.70;;;;;;5074631;28;20067;-88
2021/06/03 04:53:05;;;;;;;4.55;3.50;;;20.00;81.80;;;;;;5074559;28;20111;-88
2021/06/03 04:55:31;;;;;;;4.78;3.22;;;20.00;81.70;;;;;;5037723;28;20045;-87
2021/06/03 04:57:58;;;;;;;4.57;3.40;;;20.10;82.00;;;;;;5067121;28;20052;-88
2021/06/03 05:00:32;;;;;;;4.85;3.22;;;20.10;81.60;;;;;;5067316;28;20024;-88
2021/06/03 05:03:00;;;;;;;5.88;3.72;;;20.10;81.60;;;;;;5055599;28;20028;-89
2021/06/03 05:05:26;;;;;;;4.88;3.30;;;20.10;81.50;;;;;;5069577;28;20043;-88
2021/06/03 05:07:53;;;;;;;4.53;3.15;;;20.10;81.40;;;;;;5074280;28;20016;-89
2021/06/03 05:10:20;;;;;;;5.20;3.53;;;20.10;81.70;;;;;;5064908;28;20030;-88
2021/06/03 05:12:46;;;;;;;6.25;3.13;;;20.10;81.80;;;;;;5068683;28;20783;-88
2021/06/03 05:15:14;;;;;;;8.35;3.40;;;20.10;81.90;;;;;;5049943;28;20028;-89
2021/06/03 05:17:40;;;;;;;4.97;3.30;;;20.10;82.00;;;;;;5056724;28;20483;-89
2021/06/03 05:20:09;;;;;;;5.50;3.25;;;20.10;82.00;;;;;;5077105;28;20037;-89
2021/06/03 05:22:39;;;;;;;5.60;3.58;;;20.10;82.30;;;;;;5069287;28;20063;-88
2021/06/03 05:25:10;;;;;;;5.35;3.47;;;20.10;82.40;;;;;;5063724;28;20150;-92
2021/06/03 05:27:36;;;;;;;6.10;3.33;;;20.20;82.70;;;;;;5084491;28;20021;-89
2021/06/03 05:30:05;;;;;;;5.43;3.67;;;20.20;82.90;;;;;;5071537;28;20024;-89
2021/06/03 05:32:31;;;;;;;7.72;3.92;;;20.20;83.30;;;;;;5067018;28;20510;-89
2021/06/03 05:34:57;;;;;;;5.78;3.92;;;20.20;83.60;;;;;;5040120;28;20032;-91
2021/06/03 05:37:22;;;;;;;5.72;3.95;;;20.20;83.80;;;;;;5067263;28;20400;-89
2021/06/03 05:39:48;;;;;;;9.25;3.88;;;20.20;84.00;;;;;;5063902;28;20023;-91
2021/06/03 05:42:14;;;;;;;6.82;4.07;;;20.10;84.10;;;;;;5033952;28;20032;-90
2021/06/03 05:44:40;;;;;;;4.80;3.70;;;20.10;84.10;;;;;;5072982;28;20170;-90
2021/06/03 05:47:05;;;;;;;6.47;4.15;;;20.20;84.30;;;;;;5070494;28;20035;-89
2021/06/03 05:49:31;;;;;;;7.60;4.70;;;20.10;84.40;;;;;;5050470;28;20021;-91
2021/06/03 05:52:02;;;;;;;6.00;4.40;;;20.10;84.50;;;;;;5051795;28;20108;-88
2021/06/03 05:54:29;;;;;;;6.90;4.72;;;20.10;84.60;;;;;;5072855;28;20036;-89
2021/06/03 05:56:55;;;;;;;7.55;4.82;;;20.10;85.10;;;;;;5067662;28;20056;-90
2021/06/03 05:59:21;;;;;;;6.65;4.47;;;20.10;85.00;;;;;;5065592;28;20021;-89
2021/06/03 06:01:47;;;;;;;6.13;4.45;;;20.20;85.00;;;;;;5061998;28;20025;-90
2021/06/03 06:06:51;;;;;;;6.45;4.57;;;20.20;85.20;;;;;;5062130;28;20028;-90
2021/06/03 06:09:18;;;;;;;7.28;4.90;;;20.20;85.00;;;;;;5062944;28;20052;-90
2021/06/03 06:11:45;;;;;;;6.80;4.50;;;20.30;85.70;;;;;;5063131;28;20048;-89
2021/06/03 06:14:11;;;;;;;7.30;5.20;;;20.20;85.10;;;;;;5053760;28;20107;-89
2021/06/03 06:16:37;;;;;;;8.38;5.40;;;20.30;85.20;;;;;;5063946;28;20063;-92
2021/06/03 06:19:04;;;;;;;7.72;5.35;;;20.30;85.20;;;;;;5069153;28;20025;-90
2021/06/03 06:21:31;;;;;;;8.63;5.43;;;20.30;85.20;;;;;;5056441;28;20028;-91
2021/06/03 06:23:57;;;;;;;7.68;5.32;;;20.40;85.80;;;;;;5069324;28;20044;-90
2021/06/03 06:26:24;;;;;;;8.57;6.05;;;20.40;85.90;;;;;;5054952;28;20024;-89
2021/06/03 06:28:51;;;;;;;6.95;5.10;;;20.40;86.00;;;;;;5072462;28;20132;-90
2021/06/03 06:31:18;;;;;;;8.20;5.90;;;20.50;85.80;;;;;;5053846;28;20028;-89
2021/06/03 06:33:46;;;;;;;8.65;4.97;;;20.60;85.80;;;;;;5055372;28;20027;-90
2021/06/03 06:36:12;;;;;;;7.85;5.30;;;20.70;85.80;;;;;;5066041;28;20036;-90
2021/06/03 06:38:38;;;;;;;8.10;5.47;;;20.70;85.80;;;;;;5072761;28;20021;-90
2021/06/03 06:41:04;;;;;;;7.35;6.07;;;20.80;85.60;;;;;;5074927;28;20095;-90
2021/06/03 06:43:30;;;;;;;9.13;5.88;;;20.90;85.30;;;;;;5073686;28;20035;-90
2021/06/03 06:45:56;;;;;;;7.18;6.38;;;21.00;85.30;;;;;;5068139;28;20476;-90
2021/06/03 06:48:23;;;;;;;7.85;5.80;;;21.10;85.30;;;;;;5086217;28;20024;-90
2021/06/03 06:50:50;;;;;;;8.07;5.70;;;21.10;85.10;;;;;;5067249;28;20040;-89
2021/06/03 06:53:16;;;;;;;8.57;5.85;;;21.20;85.00;;;;;;5054759;28;20056;-89
2021/06/03 06:55:42;;;;;;;8.63;5.80;;;21.30;85.00;;;;;;5058130;28;20029;-90
2021/06/03 06:58:08;;;;;;;8.40;6.20;;;21.40;85.10;;;;;;5053311;28;20075;-89
2021/06/03 07:00:36;;;;;;;9.10;7.03;;;21.50;84.80;;;;;;5055157;28;20047;-88
2021/06/03 07:03:02;;;;;;;7.95;5.63;;;21.60;84.10;;;;;;5056674;28;20054;-89
2021/06/03 07:05:28;;;;;;;8.63;6.00;;;21.70;84.10;;;;;;5054647;28;20495;-89
2021/06/03 07:07:55;;;;;;;8.00;6.47;;;21.70;83.50;;;;;;5071192;28;20064;-88
2021/06/03 07:10:22;;;;;;;9.25;6.43;;;21.80;83.00;;;;;;5081422;28;20028;-85
2021/06/03 07:12:49;;;;;;;7.45;4.95;;;21.80;82.70;;;;;;5052673;28;20016;-88
2021/06/03 07:15:16;;;;;;;8.70;5.90;;;21.90;82.90;;;;;;5072380;28;20475;-89
2021/06/03 07:17:42;;;;;;;6.97;5.20;;;22.00;83.10;;;;;;5068888;28;20085;-89
2021/06/03 07:20:11;;;;;;;8.07;6.38;;;22.00;83.20;;;;;;5076617;28;20035;-88
2021/06/03 07:22:38;;;;;;;8.77;6.30;;;22.10;82.60;;;;;;5040901;28;20154;-87
2021/06/03 07:25:06;;;;;;;8.45;6.50;;;22.20;82.40;;;;;;5085611;28;20052;-89
2021/06/03 07:27:32;;;;;;;7.90;6.85;;;22.20;81.90;;;;;;5072376;28;20023;-89
2021/06/03 07:30:00;;;;;;;10.43;6.53;;;22.30;81.60;;;;;;5073701;28;20058;-88
2021/06/03 07:32:26;;;;;;;7.85;5.20;;;22.30;81.10;;;;;;5033653;28;20037;-89
2021/06/03 07:34:52;;;;;;;6.68;5.50;;;22.40;81.10;;;;;;5037356;28;20032;-88
2021/06/03 07:37:18;;;;;;;7.38;5.30;;;22.50;81.20;;;;;;5067367;28;20477;-88
2021/06/03 07:39:44;;;;;;;8.82;6.63;;;22.50;80.90;;;;;;5057039;28;20031;-89
2021/06/03 07:42:12;;;;;;;8.02;6.65;;;22.50;80.70;;;;;;5055104;28;20027;-88
2021/06/03 07:44:38;;;;;;;8.85;6.10;;;22.60;80.10;;;;;;5047986;28;20470;-87
2021/06/03 07:47:04;;;;;;;8.68;6.85;;;22.60;80.30;;;;;;5062511;28;20039;-87
2021/06/03 07:49:30;;;;;;;9.48;6.75;;;22.60;80.10;;;;;;5053953;28;20465;-88
2021/06/03 07:51:57;;;;;;;10.15;5.82;;;22.70;80.50;;;;;;5055220;28;20041;-88
2021/06/03 07:54:23;;;;;;;8.07;5.75;;;22.70;80.50;;;;;;5047346;28;20031;-87
2021/06/03 07:56:49;;;;;;;8.02;6.50;;;22.80;80.60;;;;;;5082771;28;20032;-88
2021/06/03 07:59:15;;;;;;;7.70;6.68;;;22.90;80.50;;;;;;5055910;28;20033;-87
2021/06/03 08:01:41;;;;;;;11.07;6.15;;;23.00;79.80;;;;;;5067203;28;20058;-88
2021/06/03 08:04:07;;;;;;;6.70;5.50;;;23.10;80.00;;;;;;5067658;28;20514;-87
2021/06/03 08:06:33;;;;;;;8.40;6.13;;;23.20;80.10;;;;;;5051150;28;20175;-87
2021/06/03 08:08:59;;;;;;;7.60;5.60;;;23.20;79.50;;;;;;5042454;28;20516;-87
2021/06/03 08:11:25;;;;;;;8.43;6.00;;;23.30;79.60;;;;;;5086465;28;20020;-88
2021/06/03 08:13:51;;;;;;;7.60;5.35;;;23.40;78.80;;;;;;5073021;28;20027;-87
2021/06/03 08:16:18;;;;;;;8.77;6.47;;;23.40;78.60;;;;;;5060539;28;20032;-88
2021/06/03 08:18:44;;;;;;;8.73;6.38;;;23.60;78.20;;;;;;5072586;28;20024;-88
2021/06/03 08:21:10;;;;;;;7.82;5.20;;;23.70;77.30;;;;;;5062432;28;20029;-87
2021/06/03 08:23:37;;;;;;;8.10;5.28;;;23.70;77.30;;;;;;5041556;28;20040;-88
2021/06/03 08:26:03;;;;;;;8.30;5.97;;;23.80;77.60;;;;;;5074152;28;20507;-87
2021/06/03 08:28:29;;;;;;;9.82;5.90;;;23.80;76.50;;;;;;5068418;28;20033;-93
2021/06/03 08:30:58;;;;;;;6.43;4.63;;;23.80;76.30;;;;;;5075696;28;20030;-87
2021/06/03 08:33:25;;;;;;;9.65;5.32;;;23.80;76.80;;;;;;5060159;28;20483;-88
2021/06/03 08:35:51;;;;;;;8.57;5.00;;;23.80;76.40;;;;;;5079251;28;20020;-89
2021/06/03 08:38:17;;;;;;;7.38;5.20;;;23.90;76.30;;;;;;5092645;28;20028;-86
2021/06/03 08:40:47;;;;;;;7.35;4.90;;;24.00;75.10;;;;;;5076070;28;20074;-89
2021/06/03 08:43:14;;;;;;;7.83;3.80;;;24.00;75.30;;;;;;5072374;28;20029;-88
2021/06/03 08:45:43;;;;;;;4.70;3.85;;;24.00;75.20;;;;;;5056097;28;20551;-88
2021/06/03 08:48:11;;;;;;;6.32;4.80;;;24.00;75.50;;;;;;5051271;28;20060;-89
2021/06/03 08:50:40;;;;;;;8.85;5.15;;;24.10;73.80;;;;;;5074768;28;20031;-86
2021/06/03 08:53:06;;;;;;;7.38;4.85;;;24.10;74.50;;;;;;5077107;28;20103;-86
2021/06/03 08:58:20;;;;;;;6.25;4.38;;;24.20;74.40;;;;;;5078823;28;20035;-87
2021/06/03 09:00:47;;;;;;;8.05;4.90;;;24.20;74.60;;;;;;5078014;28;20087;-89
2021/06/03 09:03:14;;;;;;;8.05;4.60;;;24.30;74.40;;;;;;5055407;28;20055;-72
2021/06/03 09:05:40;;;;;;;5.43;4.30;;;24.30;74.00;;;;;;5078476;28;20078;-72
2021/06/03 09:08:39;;;;;;;5.85;4.20;;;24.40;74.00;;;;;;5094653;28;20024;-86
2021/06/03 09:11:11;;;;;;;6.90;4.63;;;24.40;74.60;;;;;;5073873;28;20021;-86
2021/06/03 09:14:01;;;;;;;;;;;;;;;;;;;;;
2021/06/03 09:16:28;;;;;;;;;;;24.70;74.20;;;;;;5078670;28;20032;-89
2021/06/03 09:19:09;;;;;;;7.03;5.00;;;24.70;74.40;;;;;;5075023;28;19958;-88
2021/06/03 09:21:39;;;;;;;9.55;5.18;;;24.80;73.90;;;;;;5074055;28;20024;-88
2021/06/03 09:24:10;;;;;;;8.27;5.10;;;24.80;73.90;;;;;;5078309;28;20783;-88
2021/06/03 09:26:44;;;;;;;7.13;4.78;;;24.80;74.50;;;;;;5046835;28;20043;-88
2021/06/03 09:29:11;;;;;;;7.60;4.63;;;24.90;73.80;;;;;;5057505;28;20016;-88
2021/06/03 09:31:37;;;;;;;7.10;5.18;;;24.90;73.70;;;;;;5059208;28;20020;-90
2021/06/03 09:34:05;;;;;;;8.05;5.80;;;25.00;74.20;;;;;;5069009;28;20025;-88
2021/06/03 09:36:51;;;;;;;7.55;4.38;;;25.10;73.70;;;;;;5072755;28;20036;-87
2021/06/03 09:39:37;;;;;;;5.97;4.55;;;25.10;74.30;;;;;;5053277;28;20020;-88
2021/06/03 09:42:11;;;;;;;9.07;6.20;;;25.30;74.70;;;;;;5058594;28;20020;-88
2021/06/03 09:44:41;;;;;;;6.93;5.90;;;25.30;74.60;;;;;;5074577;28;20079;-88
2021/06/03 09:47:09;;;;;;;7.30;5.47;;;25.40;73.80;;;;;;5068685;28;20146;-87
2021/06/03 09:49:44;;;;;;;6.32;4.63;;;25.40;73.60;;;;;;5066314;28;20052;-87
2021/06/03 09:52:18;;;;;;;6.78;5.35;;;25.50;74.00;;;;;;5073481;28;20035;-88
2021/06/03 09:54:53;;;;;;;7.72;5.80;;;25.50;74.50;;;;;;5045886;28;20021;-87
2021/06/03 09:57:20;;;;;;;7.43;5.03;;;25.50;73.90;;;;;;5054430;28;20028;-88
2021/06/03 09:59:47;;;;;;;9.07;4.93;;;25.60;73.60;;;;;;5058275;28;20025;-87
2021/06/03 10:02:17;;;;;;;7.60;4.40;;;25.60;73.80;;;;;;5055186;28;20020;-87
2021/06/03 10:04:45;;;;;;;6.25;4.28;;;25.60;73.70;;;;;;5073101;28;20108;-88
2021/06/03 10:07:22;;;;;;;6.40;3.88;;;25.60;73.50;;;;;;5054419;28;20439;-70
2021/06/03 10:09:59;;;;;;;6.00;4.20;;;25.60;73.90;;;;;;5058596;28;20035;-70
2021/06/03 10:12:25;;;;;;;6.20;4.32;;;25.60;73.80;;;;;;5050917;28;20016;-71
2021/06/03 10:14:54;;;;;;;6.95;4.10;;;25.60;73.60;;;;;;5071469;28;20031;-87
2021/06/03 10:17:32;;;;;;;5.95;4.38;;;25.70;73.60;;;;;;5072612;28;20056;-90
2021/06/03 10:20:07;;;;;;;9.25;4.55;;;25.70;73.50;;;;;;5039263;28;20035;-89
2021/06/03 10:22:35;;;;;;;7.00;4.88;;;25.70;73.80;;;;;;5064480;28;20021;-89
2021/06/03 10:25:07;;;;;;;4.90;3.58;;;25.70;73.80;;;;;;5062299;28;20412;-87
2021/06/03 10:27:37;;;;;;;8.38;4.80;;;25.70;73.60;;;;;;5092121;28;20039;-88
2021/06/03 10:30:11;;;;;;;6.63;4.53;;;25.70;73.60;;;;;;5073294;28;20145;-71
2021/06/03 10:32:38;;;;;;;6.18;4.85;;;25.70;73.60;;;;;;5081325;28;20077;-88
2021/06/03 10:35:08;;;;;;;12.88;6.90;;;25.70;73.60;;;;;;5075707;28;20032;-90
2021/06/03 10:37:35;;;;;;;11.52;7.30;;;25.60;76.50;;;;;;5069093;28;20008;-92
2021/06/03 10:40:02;;;;;;;7.75;6.70;;;25.50;79.80;;;;;;5070054;28;20028;-93
2021/06/03 10:42:28;;;;;;;12.30;6.85;;;25.40;80.70;;;;;;5074800;28;20045;-91
2021/06/03 10:44:53;;;;;;;9.10;6.47;;;25.30;81.50;;;;;;5055784;28;20032;-92
2021/06/03 10:47:19;;;;;;;7.80;6.32;;;25.10;82.30;;;;;;5057081;28;20126;-90
2021/06/03 10:49:46;;;;;;;8.50;6.85;;;25.00;82.90;;;;;;5089170;28;20059;-91
2021/06/03 10:52:14;;;;;;;8.73;6.90;;;24.90;84.60;;;;;;5065748;28;20009;-89
2021/06/03 10:54:48;;;;;;;8.85;7.00;;;24.90;85.30;;;;;;5073344;28;20024;-89
2021/06/03 11:04:34;;;;;;;10.27;7.85;;;24.80;87.10;;;;;;5012442;28;20045;-92
2021/06/03 11:07:07;;;;;;;11.88;9.20;;;24.80;85.20;;;;;;5009623;28;20033;-93
2021/06/03 11:16:07;;;;;;;10.52;9.15;;;24.50;87.10;;;;;;4974711;28;20037;-92
2021/06/03 11:18:45;;;;;;;12.73;8.73;;;24.40;87.40;;;;;;5074799;28;20019;-92
2021/06/03 11:21:48;;;;;;;;;;;;;;;;;;;;;
2021/06/03 11:24:42;;;;;;;10.65;8.38;;;24.40;88.00;;;;;;5081708;28;20376;-94
2021/06/03 11:30:34;;;;;;;11.93;9.70;;;24.50;87.90;;;;;;5070618;28;20059;-92
2021/06/03 11:32:59;;;;;;;10.55;7.93;;;24.50;86.50;;;;;;5076453;28;20094;-91
2021/06/03 11:35:29;;;;;;;11.25;9.23;;;24.60;87.00;;;;;;5072738;28;20435;-92
2021/06/03 11:38:03;;;;;;;10.23;8.50;;;24.60;86.90;;;;;;5055485;28;20017;-94
2021/06/03 11:40:30;;;;;;;10.93;7.75;;;24.80;87.00;;;;;;5089965;28;20025;-89
2021/06/03 11:42:56;;;;;;;9.30;8.30;;;24.80;85.10;;;;;;5082115;28;20020;-92
2021/06/03 11:45:27;;;;;;;10.73;8.35;;;24.90;84.50;;;;;;5100712;28;20116;-94
2021/06/03 11:47:55;;;;;;;12.82;9.30;;;24.90;83.40;;;;;;5075880;28;20047;-92
2021/06/03 11:50:20;;;;;;;13.38;9.00;;;24.90;84.10;;;;;;5080933;28;20020;-92
2021/06/03 11:55:32;;;;;;;12.68;7.47;;;25.00;83.40;;;;;;5070039;28;20024;-93
2021/06/03 11:58:30;;;;;;;10.40;8.05;;;25.10;82.40;;;;;;5072661;28;20047;-95
2021/06/03 12:01:01;;;;;;;8.68;6.57;;;25.20;82.40;;;;;;5081500;28;20451;-92
2021/06/03 12:03:36;;;;;;;8.40;6.00;;;25.30;81.60;;;;;;5093116;28;20021;-94
2021/06/03 12:06:06;;;;;;;7.72;5.57;;;25.30;82.30;;;;;;5076675;28;20095;-92
2021/06/03 12:08:32;;;;;;;;;;;25.30;81.00;;;;;;5076259;28;20017;-93
2021/06/03 12:10:58;;;;;;;11.55;6.20;;;25.40;79.40;;;;;;5080934;28;19911;-73
2021/06/03 12:13:25;;;;;;;7.57;4.80;;;25.40;80.40;;;;;;5076129;28;20573;-73
2021/06/03 12:15:51;;;;;;;8.32;5.00;;;25.40;80.90;;;;;;5087445;28;20031;-70
2021/06/03 12:18:17;;;;;;;8.95;5.53;;;25.50;79.10;;;;;;5077620;28;20477;-71
2021/06/03 12:20:44;;;;;;;6.15;3.88;;;25.50;80.40;;;;;;5074796;28;20060;-83
2021/06/03 12:23:12;;;;;;;5.57;4.15;;;25.60;80.40;;;;;;5066617;28;20068;-83
2021/06/03 12:25:40;;;;;;;6.10;4.00;;;25.60;79.60;;;;;;5078338;28;20087;-87
2021/06/03 12:28:07;;;;;;;7.18;3.30;;;25.60;79.10;;;;;;5071230;28;20029;-81
2021/06/03 12:30:38;;;;;;;6.13;3.38;;;25.60;79.80;;;;;;5044529;28;20035;-91
2021/06/03 12:33:14;;;;;;;6.40;4.00;;;25.60;79.70;;;;;;5074145;28;20028;-94
2021/06/03 12:36:02;;;;;;;5.28;4.10;;;25.80;79.30;;;;;;5063721;28;20107;-94
2021/06/03 12:38:38;;;;;;;8.50;4.45;;;25.80;78.50;;;;;;5071969;28;20089;-89
2021/06/03 12:41:08;;;;;;;5.07;4.13;;;25.80;78.80;;;;;;5071029;28;20028;-90
2021/06/03 12:43:44;;;;;;;6.07;4.38;;;25.90;79.00;;;;;;5065929;28;20017;-94
2021/06/03 12:46:13;;;;;;;5.72;3.90;;;25.90;77.60;;;;;;5057630;28;20055;-90
2021/06/03 12:48:39;;;;;;;7.28;4.50;;;25.90;76.50;;;;;;5070902;28;20029;-90
2021/06/03 12:51:11;;;;;;;5.57;3.47;;;26.00;76.90;;;;;;5055256;28;20494;-89
2021/06/03 12:53:37;;;;;;;6.20;4.28;;;26.00;77.40;;;;;;5069933;28;20031;-86
2021/06/03 12:56:13;;;;;;;7.40;4.15;;;26.00;77.80;;;;;;5075914;28;20016;-93
2021/06/03 12:58:39;;;;;;;5.25;3.63;;;26.00;76.30;;;;;;5060403;28;20383;-88
2021/06/03 13:01:10;;;;;;;6.18;4.32;;;26.00;75.90;;;;;;5058912;28;20032;-88
2021/06/03 13:03:36;;;;;;;6.75;3.97;;;26.00;75.80;;;;;;5073676;28;20472;-88
2021/06/03 13:06:04;;;;;;;6.93;3.63;;;26.00;75.70;;;;;;5072471;28;20477;-88
2021/06/03 13:08:51;;;;;;;5.63;4.28;;;26.00;75.60;;;;;;5073787;28;20016;-88
2021/06/03 13:11:28;;;;;;;9.23;5.07;;;26.00;76.10;;;;;;5074000;28;20027;-89
2021/06/03 13:13:54;;;;;;;8.65;5.97;;;26.00;76.10;;;;;;5072843;28;20503;-88
2021/06/03 13:16:26;;;;;;;6.28;4.68;;;26.00;75.90;;;;;;5065705;28;20469;-87
2021/06/03 13:18:53;;;;;;;6.97;4.15;;;26.00;76.80;;;;;;5054641;28;20135;-90